sensor_id;sensor_type;location;lat;lon;timestamp;pressure;altitude;pressure_sealevel;temperature;humidity
84932;BME280;75193;53.980;13.902;2024-03-02T00:00:21;100773.59;;;18.15;45.40
84932;BME280;75193;53.980;13.902;2024-03-02T00:02:48;100767.91;;;18.20;45.24
84932;BME280;75193;53.980;13.902;2024-03-02T00:05:16;100777.91;;;18.16;45.50
84932;BME280;75193;53.980;13.902;2024-03-02T00:07:43;100774.59;;;17.94;45.72
84932;BME280;75193;53.980;13.902;2024-03-02T00:10:10;100775.81;;;17.48;47.32
84932;BME280;75193;53.980;13.902;2024-03-02T00:12:37;100779.06;;;17.08;49.19
84932;BME280;75193;53.980;13.902;2024-03-02T00:17:53;100769.03;;;16.91;49.75
84932;BME280;75193;53.980;13.902;2024-03-02T00:20:24;100761.31;;;17.10;50.15
84932;BME280;75193;53.980;13.902;2024-03-02T00:23:13;100752.47;;;17.00;50.85
84932;BME280;75193;53.980;13.902;2024-03-02T00:25:41;100755.34;;;17.29;50.31
84932;BME280;75193;53.980;13.902;2024-03-02T00:28:21;100749.75;;;17.43;49.92
84932;BME280;75193;53.980;13.902;2024-03-02T00:31:01;100738.56;;;17.30;50.24
84932;BME280;75193;53.980;13.902;2024-03-02T00:33:30;100745.22;;;17.87;49.11
84932;BME280;75193;53.980;13.902;2024-03-02T00:35:57;100734.03;;;17.83;49.06
84932;BME280;75193;53.980;13.902;2024-03-02T00:38:22;100727.31;;;18.40;47.80
84932;BME280;75193;53.980;13.902;2024-03-02T00:40:48;100724.50;;;18.63;47.45
84932;BME280;75193;53.980;13.902;2024-03-02T00:46:15;100730.22;;;18.37;47.81
84932;BME280;75193;53.980;13.902;2024-03-02T00:48:48;100734.13;;;18.03;48.54
84932;BME280;75193;53.980;13.902;2024-03-02T00:51:14;100733.78;;;18.17;48.21
84932;BME280;75193;53.980;13.902;2024-03-02T00:53:39;100746.09;;;17.97;49.28
84932;BME280;75193;53.980;13.902;2024-03-02T00:56:09;100726.78;;;18.56;47.64
84932;BME280;75193;53.980;13.902;2024-03-02T00:58:35;100730.06;;;18.29;48.23
84932;BME280;75193;53.980;13.902;2024-03-02T01:01:01;100729.25;;;18.29;47.99
84932;BME280;75193;53.980;13.902;2024-03-02T01:03:26;100738.31;;;18.36;48.17
84932;BME280;75193;53.980;13.902;2024-03-02T01:05:52;100728.13;;;18.31;48.29
84932;BME280;75193;53.980;13.902;2024-03-02T01:08:17;100736.91;;;18.01;49.11
84932;BME280;75193;53.980;13.902;2024-03-02T01:10:43;100722.56;;;18.34;48.63
84932;BME280;75193;53.980;13.902;2024-03-02T01:13:08;100731.22;;;17.75;49.95
84932;BME280;75193;53.980;13.902;2024-03-02T01:15:34;100730.00;;;18.10;49.76
84932;BME280;75193;53.980;13.902;2024-03-02T01:17:59;100722.56;;;18.84;47.96
84932;BME280;75193;53.980;13.902;2024-03-02T01:20:25;100725.72;;;18.19;49.54
84932;BME280;75193;53.980;13.902;2024-03-02T01:22:50;100733.25;;;18.63;48.31
84932;BME280;75193;53.980;13.902;2024-03-02T01:25:16;100728.28;;;17.99;49.98
84932;BME280;75193;53.980;13.902;2024-03-02T01:27:42;100727.75;;;18.55;49.04
84932;BME280;75193;53.980;13.902;2024-03-02T01:30:08;100732.22;;;18.05;50.17
84932;BME280;75193;53.980;13.902;2024-03-02T01:32:34;100732.72;;;17.99;50.49
84932;BME280;75193;53.980;13.902;2024-03-02T01:34:59;100714.84;;;18.22;50.39
84932;BME280;75193;53.980;13.902;2024-03-02T01:37:25;100712.44;;;18.59;49.43
84932;BME280;75193;53.980;13.902;2024-03-02T01:39:50;100715.63;;;18.43;49.83
84932;BME280;75193;53.980;13.902;2024-03-02T01:42:16;100718.94;;;18.35;49.85
84932;BME280;75193;53.980;13.902;2024-03-02T01:44:41;100716.59;;;18.42;50.00
84932;BME280;75193;53.980;13.902;2024-03-02T01:47:07;100714.19;;;18.89;48.95
84932;BME280;75193;53.980;13.902;2024-03-02T01:49:32;100705.84;;;18.24;50.32
84932;BME280;75193;53.980;13.902;2024-03-02T01:51:59;100706.41;;;17.97;51.34
84932;BME280;75193;53.980;13.902;2024-03-02T01:54:25;100703.09;;;18.55;50.08
84932;BME280;75193;53.980;13.902;2024-03-02T01:56:50;100705.13;;;19.11;48.77
84932;BME280;75193;53.980;13.902;2024-03-02T01:59:16;100709.19;;;19.05;48.75
84932;BME280;75193;53.980;13.902;2024-03-02T02:01:41;100701.06;;;18.68;49.61
84932;BME280;75193;53.980;13.902;2024-03-02T02:04:06;100699.84;;;18.91;49.47
84932;BME280;75193;53.980;13.902;2024-03-02T02:06:32;100700.13;;;18.38;50.49
84932;BME280;75193;53.980;13.902;2024-03-02T02:08:58;100691.06;;;18.91;49.22
84932;BME280;75193;53.980;13.902;2024-03-02T02:11:24;100689.06;;;19.60;47.62
84932;BME280;75193;53.980;13.902;2024-03-02T02:13:50;100683.66;;;18.94;49.24
84932;BME280;75193;53.980;13.902;2024-03-02T02:16:15;100686.31;;;19.23;48.57
84932;BME280;75193;53.980;13.902;2024-03-02T02:18:41;100682.81;;;18.74;49.53
84932;BME280;75193;53.980;13.902;2024-03-02T02:21:06;100680.78;;;19.73;47.59
84932;BME280;75193;53.980;13.902;2024-03-02T02:23:31;100678.47;;;19.41;48.20
84932;BME280;75193;53.980;13.902;2024-03-02T02:25:57;100672.13;;;19.52;47.88
84932;BME280;75193;53.980;13.902;2024-03-02T02:28:22;100681.16;;;19.22;48.11
84932;BME280;75193;53.980;13.902;2024-03-02T02:30:48;100675.66;;;19.52;47.68
84932;BME280;75193;53.980;13.902;2024-03-02T02:33:13;100668.69;;;19.61;47.64
84932;BME280;75193;53.980;13.902;2024-03-02T02:35:39;100674.84;;;19.42;48.05
84932;BME280;75193;53.980;13.902;2024-03-02T02:38:04;100671.25;;;18.95;49.12
84932;BME280;75193;53.980;13.902;2024-03-02T02:40:30;100665.88;;;19.53;47.79
84932;BME280;75193;53.980;13.902;2024-03-02T02:42:57;100659.78;;;19.33;48.18
84932;BME280;75193;53.980;13.902;2024-03-02T02:45:22;100669.50;;;19.52;47.82
84932;BME280;75193;53.980;13.902;2024-03-02T02:47:47;100663.78;;;19.47;47.69
84932;BME280;75193;53.980;13.902;2024-03-02T02:50:13;100660.72;;;19.98;46.86
84932;BME280;75193;53.980;13.902;2024-03-02T02:52:40;100665.22;;;19.41;48.27
84932;BME280;75193;53.980;13.902;2024-03-02T02:55:07;100660.78;;;19.79;47.48
84932;BME280;75193;53.980;13.902;2024-03-02T02:57:34;100660.44;;;19.64;47.75
84932;BME280;75193;53.980;13.902;2024-03-02T03:00:12;100671.88;;;19.64;47.87
84932;BME280;75193;53.980;13.902;2024-03-02T03:02:43;100672.22;;;19.23;48.79
84932;BME280;75193;53.980;13.902;2024-03-02T03:05:10;100673.50;;;19.19;48.94
84932;BME280;75193;53.980;13.902;2024-03-02T03:07:36;100675.88;;;18.83;49.51
84932;BME280;75193;53.980;13.902;2024-03-02T03:10:03;100669.47;;;18.86;49.67
84932;BME280;75193;53.980;13.902;2024-03-02T03:12:29;100676.31;;;18.29;50.80
84932;BME280;75193;53.980;13.902;2024-03-02T03:14:55;100677.72;;;18.33;51.37
84932;BME280;75193;53.980;13.902;2024-03-02T03:17:21;100679.13;;;18.37;51.14
84932;BME280;75193;53.980;13.902;2024-03-02T03:19:47;100670.28;;;18.76;50.65
84932;BME280;75193;53.980;13.902;2024-03-02T03:22:13;100683.09;;;18.91;50.52
84932;BME280;75193;53.980;13.902;2024-03-02T03:24:39;100676.69;;;18.74;50.83
84932;BME280;75193;53.980;13.902;2024-03-02T03:27:04;100673.34;;;18.72;51.29
84932;BME280;75193;53.980;13.902;2024-03-02T03:29:29;100666.66;;;18.68;50.98
84932;BME280;75193;53.980;13.902;2024-03-02T03:31:55;100659.41;;;18.89;50.63
84932;BME280;75193;53.980;13.902;2024-03-02T03:34:20;100660.13;;;19.01;50.42
84932;BME280;75193;53.980;13.902;2024-03-02T03:36:46;100662.91;;;18.80;50.74
84932;BME280;75193;53.980;13.902;2024-03-02T03:39:11;100668.34;;;18.88;50.76
84932;BME280;75193;53.980;13.902;2024-03-02T03:41:36;100663.28;;;18.46;52.23
84932;BME280;75193;53.980;13.902;2024-03-02T03:44:02;100664.56;;;18.91;51.05
84932;BME280;75193;53.980;13.902;2024-03-02T03:46:29;100667.16;;;18.42;52.21
84932;BME280;75193;53.980;13.902;2024-03-02T03:48:54;100664.72;;;18.70;51.48
84932;BME280;75193;53.980;13.902;2024-03-02T03:51:21;100665.75;;;18.38;52.57
84932;BME280;75193;53.980;13.902;2024-03-02T03:53:48;100659.22;;;18.42;52.38
84932;BME280;75193;53.980;13.902;2024-03-02T03:56:14;100651.19;;;18.92;51.67
84932;BME280;75193;53.980;13.902;2024-03-02T03:58:39;100658.41;;;18.61;52.18
84932;BME280;75193;53.980;13.902;2024-03-02T04:01:04;100657.06;;;18.67;52.55
84932;BME280;75193;53.980;13.902;2024-03-02T04:03:30;100651.78;;;18.17;53.39
84932;BME280;75193;53.980;13.902;2024-03-02T04:05:56;100656.41;;;18.34;53.69
84932;BME280;75193;53.980;13.902;2024-03-02T04:08:21;100652.72;;;19.04;51.69
84932;BME280;75193;53.980;13.902;2024-03-02T04:10:47;100656.22;;;18.66;52.60
84932;BME280;75193;53.980;13.902;2024-03-02T04:13:12;100654.28;;;18.78;52.06
84932;BME280;75193;53.980;13.902;2024-03-02T04:15:38;100655.50;;;19.03;51.28
84932;BME280;75193;53.980;13.902;2024-03-02T04:18:03;100660.34;;;18.59;52.88
84932;BME280;75193;53.980;13.902;2024-03-02T04:20:29;100658.00;;;18.75;52.08
84932;BME280;75193;53.980;13.902;2024-03-02T04:22:55;100660.72;;;18.35;53.00
84932;BME280;75193;53.980;13.902;2024-03-02T04:25:20;100661.19;;;19.27;50.94
84932;BME280;75193;53.980;13.902;2024-03-02T04:27:46;100664.56;;;18.91;52.06
84932;BME280;75193;53.980;13.902;2024-03-02T04:30:12;100660.56;;;19.62;50.37
84932;BME280;75193;53.980;13.902;2024-03-02T04:32:37;100665.63;;;19.56;50.02
84932;BME280;75193;53.980;13.902;2024-03-02T04:35:04;100666.88;;;18.45;53.23
84932;BME280;75193;53.980;13.902;2024-03-02T04:37:31;100667.13;;;18.23;53.65
84932;BME280;75193;53.980;13.902;2024-03-02T04:39:57;100655.53;;;18.84;52.01
84932;BME280;75193;53.980;13.902;2024-03-02T04:42:22;100659.56;;;18.68;52.25
84932;BME280;75193;53.980;13.902;2024-03-02T04:44:48;100651.50;;;19.65;49.79
84932;BME280;75193;53.980;13.902;2024-03-02T04:47:13;100651.75;;;18.67;52.41
84932;BME280;75193;53.980;13.902;2024-03-02T04:49:39;100653.00;;;19.01;51.70
84932;BME280;75193;53.980;13.902;2024-03-02T04:52:04;100660.94;;;19.01;51.87
84932;BME280;75193;53.980;13.902;2024-03-02T04:54:30;100661.66;;;18.84;52.11
84932;BME280;75193;53.980;13.902;2024-03-02T04:56:55;100657.13;;;18.56;52.63
84932;BME280;75193;53.980;13.902;2024-03-02T04:59:21;100651.06;;;18.84;52.38
84932;BME280;75193;53.980;13.902;2024-03-02T05:01:46;100643.22;;;19.21;51.30
84932;BME280;75193;53.980;13.902;2024-03-02T05:04:12;100645.53;;;19.44;50.44
84932;BME280;75193;53.980;13.902;2024-03-02T05:06:38;100661.38;;;18.87;51.98
84932;BME280;75193;53.980;13.902;2024-03-02T05:09:10;100659.56;;;18.97;52.28
84932;BME280;75193;53.980;13.902;2024-03-02T05:11:38;100664.69;;;19.18;51.57
84932;BME280;75193;53.980;13.902;2024-03-02T05:14:04;100670.56;;;18.83;52.19
84932;BME280;75193;53.980;13.902;2024-03-02T05:16:36;100663.56;;;19.21;51.39
84932;BME280;75193;53.980;13.902;2024-03-02T05:19:03;100664.72;;;18.89;52.62
84932;BME280;75193;53.980;13.902;2024-03-02T05:21:31;100663.44;;;19.13;51.61
84932;BME280;75193;53.980;13.902;2024-03-02T05:23:57;100665.59;;;19.46;50.71
84932;BME280;75193;53.980;13.902;2024-03-02T05:26:22;100657.69;;;19.36;51.24
84932;BME280;75193;53.980;13.902;2024-03-02T05:28:48;100658.28;;;18.92;51.87
84932;BME280;75193;53.980;13.902;2024-03-02T05:31:16;100661.66;;;18.84;51.96
84932;BME280;75193;53.980;13.902;2024-03-02T05:33:42;100656.28;;;19.32;51.02
84932;BME280;75193;53.980;13.902;2024-03-02T05:36:08;100674.47;;;19.18;51.38
84932;BME280;75193;53.980;13.902;2024-03-02T05:38:37;100662.75;;;18.91;52.13
84932;BME280;75193;53.980;13.902;2024-03-02T05:41:03;100663.69;;;19.39;50.82
84932;BME280;75193;53.980;13.902;2024-03-02T05:43:28;100676.00;;;19.20;51.29
84932;BME280;75193;53.980;13.902;2024-03-02T05:45:54;100675.72;;;19.80;50.27
84932;BME280;75193;53.980;13.902;2024-03-02T05:48:19;100684.25;;;18.98;52.18
84932;BME280;75193;53.980;13.902;2024-03-02T05:50:45;100676.69;;;19.03;51.93
84932;BME280;75193;53.980;13.902;2024-03-02T05:53:10;100672.22;;;19.13;51.75
84932;BME280;75193;53.980;13.902;2024-03-02T05:55:36;100670.50;;;19.41;51.03
84932;BME280;75193;53.980;13.902;2024-03-02T05:58:01;100679.22;;;19.04;52.02
84932;BME280;75193;53.980;13.902;2024-03-02T06:00:45;100679.47;;;18.92;52.18
84932;BME280;75193;53.980;13.902;2024-03-02T06:03:10;100676.06;;;19.48;50.82
84932;BME280;75193;53.980;13.902;2024-03-02T06:05:36;100677.09;;;18.60;53.25
84932;BME280;75193;53.980;13.902;2024-03-02T06:08:01;100677.81;;;19.00;52.24
84932;BME280;75193;53.980;13.902;2024-03-02T06:10:27;100678.66;;;18.91;53.00
84932;BME280;75193;53.980;13.902;2024-03-02T06:12:52;100682.81;;;19.23;51.52
84932;BME280;75193;53.980;13.902;2024-03-02T06:15:18;100685.63;;;19.02;52.23
84932;BME280;75193;53.980;13.902;2024-03-02T06:17:44;100677.41;;;19.81;50.68
84932;BME280;75193;53.980;13.902;2024-03-02T06:20:09;100679.25;;;19.51;51.35
84932;BME280;75193;53.980;13.902;2024-03-02T06:22:35;100679.22;;;20.08;49.93
84932;BME280;75193;53.980;13.902;2024-03-02T06:25:01;100685.63;;;20.15;49.71
84932;BME280;75193;53.980;13.902;2024-03-02T06:27:26;100690.78;;;19.23;51.90
84932;BME280;75193;53.980;13.902;2024-03-02T06:29:52;100692.59;;;18.84;53.10
84932;BME280;75193;53.980;13.902;2024-03-02T06:32:17;100690.25;;;19.76;51.02
84932;BME280;75193;53.980;13.902;2024-03-02T06:34:43;100694.13;;;20.18;49.85
84932;BME280;75193;53.980;13.902;2024-03-02T06:37:08;100701.47;;;19.60;51.22
84932;BME280;75193;53.980;13.902;2024-03-02T06:39:34;100690.56;;;20.10;50.13
84932;BME280;75193;53.980;13.902;2024-03-02T06:42:00;100698.66;;;19.61;51.44
84932;BME280;75193;53.980;13.902;2024-03-02T06:44:25;100695.72;;;19.64;51.03
84932;BME280;75193;53.980;13.902;2024-03-02T06:46:51;100700.09;;;20.30;49.44
84932;BME280;75193;53.980;13.902;2024-03-02T06:49:16;100702.25;;;19.80;50.72
84932;BME280;75193;53.980;13.902;2024-03-02T06:51:43;100697.28;;;19.57;51.22
84932;BME280;75193;53.980;13.902;2024-03-02T06:54:09;100705.13;;;19.30;51.94
84932;BME280;75193;53.980;13.902;2024-03-02T06:56:34;100698.84;;;19.87;50.86
84932;BME280;75193;53.980;13.902;2024-03-02T06:58:59;100703.84;;;19.63;51.14
84932;BME280;75193;53.980;13.902;2024-03-02T07:01:25;100696.72;;;19.63;51.15
84932;BME280;75193;53.980;13.902;2024-03-02T07:03:52;100709.28;;;20.08;50.27
84932;BME280;75193;53.980;13.902;2024-03-02T07:06:17;100703.00;;;19.62;51.20
84932;BME280;75193;53.980;13.902;2024-03-02T07:08:42;100705.50;;;19.64;51.25
84932;BME280;75193;53.980;13.902;2024-03-02T07:11:08;100708.28;;;19.62;51.50
84932;BME280;75193;53.980;13.902;2024-03-02T07:13:34;100710.09;;;19.72;51.37
84932;BME280;75193;53.980;13.902;2024-03-02T07:16:00;100712.16;;;20.15;50.38
84932;BME280;75193;53.980;13.902;2024-03-02T07:18:25;100708.97;;;20.11;50.07
84932;BME280;75193;53.980;13.902;2024-03-02T07:20:50;100711.84;;;19.90;50.64
84932;BME280;75193;53.980;13.902;2024-03-02T07:23:16;100714.19;;;19.56;51.79
84932;BME280;75193;53.980;13.902;2024-03-02T07:25:41;100713.31;;;20.03;50.77
84932;BME280;75193;53.980;13.902;2024-03-02T07:28:06;100709.94;;;20.47;49.29
84932;BME280;75193;53.980;13.902;2024-03-02T07:30:33;100717.31;;;20.71;49.00
84932;BME280;75193;53.980;13.902;2024-03-02T07:32:59;100721.88;;;20.24;49.55
84932;BME280;75193;53.980;13.902;2024-03-02T07:35:25;100716.91;;;20.39;49.56
84932;BME280;75193;53.980;13.902;2024-03-02T07:37:53;100721.44;;;20.01;50.69
84932;BME280;75193;53.980;13.902;2024-03-02T07:40:19;100726.56;;;19.65;51.00
84932;BME280;75193;53.980;13.902;2024-03-02T07:42:45;100730.53;;;19.89;50.75
84932;BME280;75193;53.980;13.902;2024-03-02T07:45:10;100719.09;;;19.88;51.02
84932;BME280;75193;53.980;13.902;2024-03-02T07:47:36;100728.38;;;20.49;49.95
84932;BME280;75193;53.980;13.902;2024-03-02T07:50:02;100724.19;;;20.46;49.42
84932;BME280;75193;53.980;13.902;2024-03-02T07:52:28;100727.63;;;20.56;49.49
84932;BME280;75193;53.980;13.902;2024-03-02T07:54:53;100730.06;;;20.03;50.72
84932;BME280;75193;53.980;13.902;2024-03-02T07:57:19;100732.38;;;20.53;49.61
84932;BME280;75193;53.980;13.902;2024-03-02T07:59:45;100732.72;;;20.03;50.92
84932;BME280;75193;53.980;13.902;2024-03-02T08:02:11;100742.47;;;20.49;50.04
84932;BME280;75193;53.980;13.902;2024-03-02T08:04:37;100739.13;;;21.28;47.94
84932;BME280;75193;53.980;13.902;2024-03-02T08:07:03;100733.53;;;20.50;49.98
84932;BME280;75193;53.980;13.902;2024-03-02T08:09:29;100734.53;;;20.67;49.36
84932;BME280;75193;53.980;13.902;2024-03-02T08:11:55;100750.75;;;20.46;49.83
84932;BME280;75193;53.980;13.902;2024-03-02T08:14:23;100751.16;;;20.05;50.83
84932;BME280;75193;53.980;13.902;2024-03-02T08:16:49;100750.16;;;20.15;50.75
84932;BME280;75193;53.980;13.902;2024-03-02T08:19:15;100746.53;;;20.44;50.17
84932;BME280;75193;53.980;13.902;2024-03-02T08:21:41;100746.50;;;20.53;49.80
84932;BME280;75193;53.980;13.902;2024-03-02T08:24:08;100757.66;;;20.57;49.67
84932;BME280;75193;53.980;13.902;2024-03-02T08:26:33;100756.75;;;20.39;50.21
84932;BME280;75193;53.980;13.902;2024-03-02T08:28:59;100759.75;;;20.99;48.97
84932;BME280;75193;53.980;13.902;2024-03-02T08:31:27;100757.91;;;21.27;48.19
84932;BME280;75193;53.980;13.902;2024-03-02T08:33:52;100760.03;;;20.78;49.43
84932;BME280;75193;53.980;13.902;2024-03-02T08:36:18;100775.75;;;20.44;49.66
84932;BME280;75193;53.980;13.902;2024-03-02T08:38:44;100764.00;;;20.09;50.87
84932;BME280;75193;53.980;13.902;2024-03-02T08:41:09;100768.53;;;20.81;48.88
84932;BME280;75193;53.980;13.902;2024-03-02T08:43:35;100769.56;;;20.53;49.85
84932;BME280;75193;53.980;13.902;2024-03-02T08:46:01;100769.00;;;20.77;49.37
84932;BME280;75193;53.980;13.902;2024-03-02T08:48:26;100766.13;;;20.33;50.50
84932;BME280;75193;53.980;13.902;2024-03-02T08:50:51;100769.34;;;21.45;48.02
84932;BME280;75193;53.980;13.902;2024-03-02T08:53:17;100771.00;;;21.10;48.54
84932;BME280;75193;53.980;13.902;2024-03-02T08:55:46;100772.44;;;20.32;50.18
84932;BME280;75193;53.980;13.902;2024-03-02T08:58:12;100776.16;;;20.39;50.32
84932;BME280;75193;53.980;13.902;2024-03-02T09:00:37;100768.88;;;21.14;48.70
84932;BME280;75193;53.980;13.902;2024-03-02T09:03:03;100775.38;;;20.66;49.81
84932;BME280;75193;53.980;13.902;2024-03-02T09:05:28;100770.09;;;21.02;49.24
84932;BME280;75193;53.980;13.902;2024-03-02T09:07:54;100781.19;;;21.51;48.37
84932;BME280;75193;53.980;13.902;2024-03-02T09:10:19;100784.97;;;21.12;48.93
84932;BME280;75193;53.980;13.902;2024-03-02T09:12:44;100784.63;;;21.25;48.69
84932;BME280;75193;53.980;13.902;2024-03-02T09:15:10;100783.78;;;21.60;47.71
84932;BME280;75193;53.980;13.902;2024-03-02T09:17:36;100785.88;;;20.85;49.17
84932;BME280;75193;53.980;13.902;2024-03-02T09:20:01;100780.09;;;20.35;50.45
84932;BME280;75193;53.980;13.902;2024-03-02T09:22:26;100791.25;;;20.48;50.22
84932;BME280;75193;53.980;13.902;2024-03-02T09:24:52;100779.88;;;20.56;50.52
84932;BME280;75193;53.980;13.902;2024-03-02T09:27:17;100785.50;;;20.53;50.43
84932;BME280;75193;53.980;13.902;2024-03-02T09:29:43;100787.59;;;20.77;49.87
84932;BME280;75193;53.980;13.902;2024-03-02T09:32:12;100784.22;;;21.20;49.01
84932;BME280;75193;53.980;13.902;2024-03-02T09:34:38;100780.28;;;22.12;46.54
84932;BME280;75193;53.980;13.902;2024-03-02T09:37:04;100782.75;;;21.79;47.47
84932;BME280;75193;53.980;13.902;2024-03-02T09:39:29;100783.22;;;21.57;48.34
84932;BME280;75193;53.980;13.902;2024-03-02T09:41:55;100775.28;;;22.09;47.02
84932;BME280;75193;53.980;13.902;2024-03-02T09:44:20;100780.59;;;22.09;47.10
84932;BME280;75193;53.980;13.902;2024-03-02T09:46:50;100786.50;;;21.51;48.25
84932;BME280;75193;53.980;13.902;2024-03-02T09:49:16;100781.75;;;22.32;46.77
84932;BME280;75193;53.980;13.902;2024-03-02T09:51:47;100793.53;;;22.29;46.51
84932;BME280;75193;53.980;13.902;2024-03-02T09:54:13;100788.75;;;22.33;46.78
84932;BME280;75193;53.980;13.902;2024-03-02T09:56:39;100792.94;;;21.66;48.03
84932;BME280;75193;53.980;13.902;2024-03-02T09:59:04;100790.91;;;21.86;47.86
84932;BME280;75193;53.980;13.902;2024-03-02T10:01:30;100793.94;;;21.65;48.00
84932;BME280;75193;53.980;13.902;2024-03-02T10:03:57;100797.13;;;21.15;48.83
84932;BME280;75193;53.980;13.902;2024-03-02T10:06:28;100793.28;;;21.27;48.14
84932;BME280;75193;53.980;13.902;2024-03-02T10:08:54;100794.63;;;21.67;47.68
84932;BME280;75193;53.980;13.902;2024-03-02T10:11:31;100799.72;;;21.60;47.68
84932;BME280;75193;53.980;13.902;2024-03-02T10:14:16;100800.41;;;21.09;48.96
84932;BME280;75193;53.980;13.902;2024-03-02T10:16:43;100789.75;;;20.91;49.16
84932;BME280;75193;53.980;13.902;2024-03-02T10:19:22;100804.47;;;21.74;47.17
84932;BME280;75193;53.980;13.902;2024-03-02T10:21:49;100806.59;;;21.17;48.62
84932;BME280;75193;53.980;13.902;2024-03-02T10:24:22;100810.03;;;21.81;47.65
84932;BME280;75193;53.980;13.902;2024-03-02T10:26:48;100801.59;;;22.12;46.48
84932;BME280;75193;53.980;13.902;2024-03-02T10:29:14;100809.88;;;22.34;46.16
84932;BME280;75193;53.980;13.902;2024-03-02T10:31:45;100804.31;;;22.20;46.43
84932;BME280;75193;53.980;13.902;2024-03-02T10:34:14;100808.56;;;21.87;47.42
84932;BME280;75193;53.980;13.902;2024-03-02T10:36:43;100802.50;;;22.28;46.29
84932;BME280;75193;53.980;13.902;2024-03-02T10:39:09;100810.25;;;22.40;46.35
84932;BME280;75193;53.980;13.902;2024-03-02T10:41:35;100815.56;;;22.40;46.57
84932;BME280;75193;53.980;13.902;2024-03-02T10:44:09;100815.06;;;21.92;46.92
84932;BME280;75193;53.980;13.902;2024-03-02T10:46:38;100805.47;;;22.51;45.74
84932;BME280;75193;53.980;13.902;2024-03-02T10:49:05;100809.28;;;21.53;47.76
84932;BME280;75193;53.980;13.902;2024-03-02T10:51:32;100800.53;;;22.30;45.71
84932;BME280;75193;53.980;13.902;2024-03-02T10:53:59;100811.28;;;22.13;46.55
84932;BME280;75193;53.980;13.902;2024-03-02T10:56:31;100801.50;;;23.22;44.02
84932;BME280;75193;53.980;13.902;2024-03-02T10:59:26;100796.56;;;23.43;44.29
84932;BME280;75193;53.980;13.902;2024-03-02T11:01:56;100795.84;;;23.09;44.97
84932;BME280;75193;53.980;13.902;2024-03-02T11:04:26;100795.97;;;24.21;42.60
84932;BME280;75193;53.980;13.902;2024-03-02T11:07:02;100798.16;;;24.17;43.72
84932;BME280;75193;53.980;13.902;2024-03-02T11:10:00;100806.16;;;24.09;43.47
84932;BME280;75193;53.980;13.902;2024-03-02T11:12:39;100810.38;;;24.04;42.70
84932;BME280;75193;53.980;13.902;2024-03-02T11:15:17;100806.41;;;24.47;42.65
84932;BME280;75193;53.980;13.902;2024-03-02T11:17:44;100805.13;;;24.27;42.49
84932;BME280;75193;53.980;13.902;2024-03-02T11:20:12;100807.84;;;24.66;42.45
84932;BME280;75193;53.980;13.902;2024-03-02T11:22:38;100804.84;;;24.05;43.01
84932;BME280;75193;53.980;13.902;2024-03-02T11:25:04;100805.28;;;24.41;42.92
84932;BME280;75193;53.980;13.902;2024-03-02T11:33:06;100812.75;;;23.82;42.68
84932;BME280;75193;53.980;13.902;2024-03-02T11:35:36;100818.00;;;24.31;42.63
84932;BME280;75193;53.980;13.902;2024-03-02T11:38:03;100822.25;;;24.57;42.10
84932;BME280;75193;53.980;13.902;2024-03-02T11:40:29;100820.25;;;24.51;41.45
84932;BME280;75193;53.980;13.902;2024-03-02T11:42:56;100816.72;;;24.03;42.47
84932;BME280;75193;53.980;13.902;2024-03-02T11:45:22;100812.63;;;24.39;41.87
84932;BME280;75193;53.980;13.902;2024-03-02T11:47:53;100809.97;;;24.31;42.18
84932;BME280;75193;53.980;13.902;2024-03-02T11:50:29;100808.25;;;24.46;41.76
84932;BME280;75193;53.980;13.902;2024-03-02T11:52:56;100814.84;;;24.67;41.59
84932;BME280;75193;53.980;13.902;2024-03-02T11:55:22;100813.53;;;24.07;42.11
84932;BME280;75193;53.980;13.902;2024-03-02T11:57:48;100815.47;;;24.77;41.06
84932;BME280;75193;53.980;13.902;2024-03-02T12:00:18;100820.59;;;24.87;40.36
84932;BME280;75193;53.980;13.902;2024-03-02T12:02:45;100822.97;;;24.42;41.51
84932;BME280;75193;53.980;13.902;2024-03-02T12:05:15;100817.13;;;25.17;40.02
84932;BME280;75193;53.980;13.902;2024-03-02T12:07:42;100814.00;;;25.28;40.50
84932;BME280;75193;53.980;13.902;2024-03-02T12:10:08;100817.50;;;24.36;41.49
84932;BME280;75193;53.980;13.902;2024-03-02T12:12:34;100819.59;;;24.49;41.19
84932;BME280;75193;53.980;13.902;2024-03-02T12:14:59;100820.28;;;24.82;40.39
84932;BME280;75193;53.980;13.902;2024-03-02T12:17:26;100820.06;;;25.22;40.06
84932;BME280;75193;53.980;13.902;2024-03-02T12:19:51;100811.50;;;25.04;40.04
84932;BME280;75193;53.980;13.902;2024-03-02T12:22:18;100815.97;;;24.33;41.14
84932;BME280;75193;53.980;13.902;2024-03-02T12:24:44;100807.97;;;25.34;39.37
84932;BME280;75193;53.980;13.902;2024-03-02T12:27:14;100810.50;;;24.66;40.54
84932;BME280;75193;53.980;13.902;2024-03-02T12:29:40;100808.88;;;25.64;38.72
84932;BME280;75193;53.980;13.902;2024-03-02T12:32:06;100805.88;;;25.22;39.42
84932;BME280;75193;53.980;13.902;2024-03-02T12:34:32;100809.72;;;25.42;39.28
84932;BME280;75193;53.980;13.902;2024-03-02T12:36:58;100809.91;;;25.41;39.97
84932;BME280;75193;53.980;13.902;2024-03-02T12:39:23;100810.78;;;25.79;38.11
84932;BME280;75193;53.980;13.902;2024-03-02T12:41:50;100810.97;;;25.54;39.55
84932;BME280;75193;53.980;13.902;2024-03-02T12:44:19;100813.13;;;25.96;38.82
84932;BME280;75193;53.980;13.902;2024-03-02T12:46:46;100817.44;;;25.68;38.64
84932;BME280;75193;53.980;13.902;2024-03-02T12:49:13;100822.41;;;25.48;38.87